메인 페이지
METAR-TAF:

METAR-TAF

공항 :

Río Grande, 아르헨티나

위도: 53-48S, 경도: 067-45W, 고도: 13m

METAR: 누락

시각: 16:39 (19:39 UTC)

예보

예보는 2 시간 39분 전, 17:00시(UTC)에 발표되었습니다.
예보 대상 시간: 19일 18시부터 20일 18시까지 (UTC)
남서10kt
시정 10km 이상
고도 3500ft 상공 흐림
전환 중
20일 15시부터 20일 17시까지 (UTC)
고도 3000ft 상공 구름 보통

TAF: SAWE 191700Z 1918/2018 23010KT 9999 OVC035 TXM02/2018Z TNM08/2012Z BECMG 2015/2017 SCT030

4,000개 이상의 공항 관측 자료 및 예보 (METAR 및 TAF 보고).

지도상에서 검색 가능한 기상관측소가 노란 점과 빨간 점으로 표시되어 있습니다.

기상관측소 명을 보려면 표시 위로 마우스를 이동하세요.

날씨 관측과 예보를 보려면 클릭하세요.

지도 변경 : 확대하려면 엑스 표시가 있는 녹색 버튼, 축소하려면 빼기 표시가 있는 녹색 버튼, 다음 페이지의 지도를 보려면 녹색 화살표를 클릭하세요.


METAR-TAF: